Time;durP1;ratioP1;P1;durP2;ratioP2;P2;SDS_P1;SDS_P2;PMS_P1;PMS_P2;Temp;Humidity;BMP_temperature;BMP_pressure;BME280_temperature;BME280_humidity;BME280_pressure;Samples;Min_cycle;Max_cycle;Signal;HPM_P1;HPM_P2
2023/07/28 00:00:10;;;;;;;;;;;16.40;99.90;;;15.50;100.00;99897.16;5011585;28;20026;-75
2023/07/28 00:02:36;;;;;;;17.23;10.23;;;16.40;99.90;;;15.52;100.00;99898.72;4991948;28;20390;-74
2023/07/28 00:05:01;;;;;;;16.10;11.27;;;16.40;99.90;;;15.52;100.00;99887.28;5009400;28;20034;-74
2023/07/28 00:07:27;;;;;;;;;;;16.40;99.90;;;15.48;100.00;99884.00;5024813;28;20040;-74
2023/07/28 00:09:53;;;;;;;20.45;12.02;;;16.40;99.90;;;15.51;100.00;99889.09;4991215;28;19913;-74
2023/07/28 00:12:18;;;;;;;;;;;16.50;99.90;;;15.49;100.00;99884.88;5007615;28;20065;-73
2023/07/28 00:14:44;;;;;;;15.45;10.82;;;16.40;99.90;;;15.46;100.00;99885.94;5008140;28;19918;-74
2023/07/28 00:17:10;;;;;;;85.55;5.50;;;16.50;99.90;;;15.47;100.00;99876.19;5007371;28;20066;-74
2023/07/28 00:19:36;;;;;;;19.35;11.98;;;16.40;99.90;;;15.49;100.00;99871.63;5008667;28;20084;-73
2023/07/28 00:22:02;;;;;;;15.70;11.07;;;16.40;99.90;;;15.54;100.00;99864.13;4991493;28;20456;-74
2023/07/28 00:24:28;;;;;;;23.45;12.00;;;16.50;99.90;;;15.48;100.00;99867.25;4995526;28;20038;-74
2023/07/28 00:26:53;;;;;;;17.92;12.30;;;16.40;99.90;;;15.35;100.00;99857.63;5006677;28;20118;-74
2023/07/28 00:29:19;;;;;;;;;;;16.40;99.90;;;15.32;100.00;99849.94;5001774;28;20056;-74
2023/07/28 00:31:45;;;;;;;18.88;11.82;;;16.40;99.90;;;15.32;100.00;99854.41;5006525;28;19921;-74
2023/07/28 00:34:11;;;;;;;19.73;12.18;;;16.40;99.90;;;15.34;100.00;99855.97;4975882;28;20475;-74
2023/07/28 00:36:36;;;;;;;23.30;14.05;;;16.40;99.90;;;15.32;100.00;99854.41;5016150;28;20109;-74
2023/07/28 00:39:02;;;;;;;22.65;14.30;;;16.40;99.90;;;15.40;100.00;99862.59;5005230;28;20132;-74
2023/07/28 00:41:31;;;;;;;21.38;14.30;;;16.40;99.90;;;15.48;100.00;99861.94;4993823;28;20415;-74
2023/07/28 00:43:56;;;;;;;29.98;16.88;;;16.40;99.90;;;15.50;100.00;99857.38;5013224;28;20038;-73
2023/07/28 00:46:22;;;;;;;19.17;13.48;;;16.50;99.90;;;15.54;100.00;99864.13;4992227;28;20235;-73
2023/07/28 00:48:48;;;;;;;27.67;15.23;;;16.50;99.90;;;15.53;100.00;99865.09;4994849;28;20176;-74
2023/07/28 00:51:15;;;;;;;23.88;14.02;;;16.50;99.90;;;15.57;100.00;99861.19;5001695;28;20049;-73
2023/07/28 00:53:41;;;;;;;23.08;14.90;;;16.50;99.90;;;15.59;100.00;99857.47;5012205;28;20477;-73
2023/07/28 00:56:07;;;;;;;21.88;14.48;;;16.50;99.90;;;15.59;100.00;99857.47;4985192;28;20439;-73
2023/07/28 00:58:33;;;;;;;22.05;15.38;;;16.60;99.90;;;15.59;100.00;99853.97;4989967;28;20803;-74
2023/07/28 01:00:59;;;;;;;23.45;13.35;;;16.50;99.90;;;15.60;100.00;99847.69;5011941;28;20127;-74
2023/07/28 01:03:26;;;;;;;23.90;14.57;;;16.60;99.90;;;15.65;100.00;99847.31;4990366;28;20042;-74
2023/07/28 01:06:29;;;;;;;27.80;15.15;;;16.60;99.90;;;15.64;100.00;99848.31;5024614;28;20451;-73
2023/07/28 01:09:04;;;;;;;26.42;14.15;;;16.60;99.90;;;15.64;100.00;99845.66;4990303;28;20033;-73
2023/07/28 01:11:30;;;;;;;25.85;15.45;;;16.60;99.90;;;15.59;100.00;99838.03;5007494;28;20035;-74
2023/07/28 01:13:56;;;;;;;23.90;14.88;;;16.50;99.90;;;15.52;100.00;99840.34;5003015;28;20404;-74
2023/07/28 01:16:22;;;;;;;27.20;15.85;;;16.50;99.90;;;15.61;100.00;99836.09;4980983;28;20083;-73
2023/07/28 01:18:48;;;;;;;29.80;15.15;;;16.60;99.90;;;15.66;100.00;99838.38;5012919;28;20026;-75
2023/07/28 01:21:32;;;;;;;27.17;16.65;;;16.60;99.90;;;15.68;100.00;99837.31;5011910;28;20034;-75
2023/07/28 01:24:21;;;;;;;22.63;14.57;;;16.60;99.90;;;15.71;100.00;99823.81;5012638;28;20046;-74
2023/07/28 01:26:49;;;;;;;23.15;14.13;;;16.60;99.90;;;15.70;100.00;99826.56;5006448;28;20057;-73
2023/07/28 01:29:16;;;;;;;29.67;15.50;;;16.60;99.90;;;15.64;100.00;99817.31;5007580;28;20094;-74
2023/07/28 01:31:42;;;;;;;25.42;15.48;;;16.60;99.90;;;15.51;100.00;99808.66;4993764;28;20046;-74
2023/07/28 01:34:08;;;;;;;32.63;16.48;;;16.50;99.90;;;15.55;100.00;99810.06;5021722;28;20030;-74
2023/07/28 01:36:34;;;;;;;34.10;17.35;;;16.50;99.90;;;15.57;100.00;99811.66;4996154;28;20087;-73
2023/07/28 01:38:59;;;;;;;27.23;16.80;;;16.60;99.90;;;15.63;100.00;99809.47;5016583;28;20040;-74
2023/07/28 01:41:25;;;;;;;35.10;19.10;;;16.60;99.90;;;15.67;100.00;99816.19;5008652;28;20065;-74
2023/07/28 01:43:55;;;;;;;41.70;20.05;;;16.60;99.90;;;15.66;100.00;99818.03;4988968;28;20149;-74
2023/07/28 01:46:21;;;;;;;49.28;20.30;;;16.60;99.90;;;15.58;100.00;99810.66;5007398;28;20117;-74
2023/07/28 01:48:47;;;;;;;43.83;20.50;;;16.60;99.90;;;15.63;100.00;99812.09;4997616;28;20113;-73
2023/07/28 01:51:13;;;;;;;35.92;19.95;;;16.60;99.90;;;15.65;100.00;99815.47;5023170;28;20116;-74
2023/07/28 01:53:38;;;;;;;46.35;21.42;;;16.60;99.90;;;15.71;100.00;99826.47;4991835;28;20437;-74
2023/07/28 01:56:04;;;;;;;;;;;16.60;99.90;;;15.66;100.00;99822.47;4990853;28;20543;-74
2023/07/28 01:58:30;;;;;;;32.72;18.83;;;16.60;99.90;;;15.68;100.00;99815.22;5005387;28;19917;-74
2023/07/28 02:00:55;;;;;;;50.45;22.58;;;16.60;99.90;;;15.71;100.00;99821.16;5014111;28;20042;-73
2023/07/28 02:03:22;;;;;;;;;;;16.60;99.90;;;15.68;100.00;99816.09;4981142;28;20038;-73
2023/07/28 02:05:48;;;;;;;43.30;20.17;;;16.60;99.90;;;15.65;100.00;99816.31;4974903;28;20518;-74
2023/07/28 02:08:14;;;;;;;33.42;17.95;;;16.60;99.90;;;15.74;100.00;99812.97;4993228;28;20033;-74
2023/07/28 02:10:40;;;;;;;42.45;19.45;;;16.60;99.90;;;15.68;100.00;99805.47;4998509;28;20088;-74
2023/07/28 02:13:05;;;;;;;;;;;16.60;99.90;;;15.64;100.00;99808.50;5007599;28;20058;-74
2023/07/28 02:15:31;;;;;;;45.78;20.08;;;16.60;99.90;;;15.67;100.00;99814.38;4992534;28;19914;-73
2023/07/28 02:17:57;;;;;;;45.13;21.38;;;16.60;99.90;;;15.69;100.00;99799.19;5008869;28;20137;-74
2023/07/28 02:20:23;;;;;;;52.33;21.75;;;16.60;99.90;;;15.74;100.00;99804.13;5011325;28;20174;-74
2023/07/28 02:22:48;;;;;;;46.20;21.33;;;16.60;99.90;;;15.75;100.00;99798.69;5009177;28;20117;-74
2023/07/28 02:25:14;;;;;;;44.30;20.05;;;16.70;99.90;;;15.75;100.00;99793.41;5011134;28;20033;-73
2023/07/28 02:27:40;;;;;;;;;;;16.70;99.90;;;15.78;100.00;99805.56;4984141;28;20113;-74
2023/07/28 02:30:06;;;;;;;43.10;19.13;;;16.70;99.90;;;15.80;100.00;99808.94;4989894;28;19944;-74
2023/07/28 02:32:33;;;;;;;40.38;19.77;;;16.70;99.90;;;15.84;100.00;99799.75;5005535;28;20036;-74
2023/07/28 02:34:59;;;;;;;34.70;18.35;;;16.70;99.90;;;15.91;100.00;99808.88;4997263;28;20381;-75
2023/07/28 02:37:25;;;;;;;57.97;22.77;;;16.70;99.90;;;15.98;100.00;99809.19;5008776;28;20046;-76
2023/07/28 02:39:51;;;;;;;63.88;23.95;;;16.80;99.90;;;15.87;100.00;99809.25;4993982;28;21092;-76
2023/07/28 02:42:19;;;;;;;46.72;21.77;;;16.80;99.90;;;15.87;100.00;99802.13;4994569;28;20049;-76
2023/07/28 02:44:45;;;;;;;62.28;23.30;;;16.70;99.90;;;15.87;100.00;99804.78;4996218;28;20064;-76
2023/07/28 02:47:11;;;;;;;63.08;22.83;;;16.70;99.90;;;15.81;100.00;99805.31;4965181;28;20437;-77
2023/07/28 02:49:36;;;;;;;75.85;26.88;;;16.70;99.90;;;15.72;100.00;99806.94;4999707;28;20052;-77
2023/07/28 02:52:03;;;;;;;49.05;20.60;;;16.70;99.90;;;15.76;100.00;99810.16;4986677;28;20137;-79
2023/07/28 02:54:29;;;;;;;69.82;25.08;;;16.70;99.90;;;15.83;100.00;99805.19;4992308;28;20053;-78
2023/07/28 02:57:03;;;;;;;59.17;23.92;;;16.70;99.90;;;15.85;100.00;99795.28;4969339;28;20034;-78
2023/07/28 02:59:29;;;;;;;61.22;22.63;;;16.70;99.90;;;15.87;100.00;99796.00;4959902;28;20057;-79
2023/07/28 03:01:57;;;;;;;66.93;23.15;;;16.80;99.90;;;15.89;100.00;99802.03;4965562;28;20440;-78
2023/07/28 03:04:30;;;;;;;54.30;22.33;;;16.70;99.90;;;15.83;100.00;99800.72;4971261;28;20034;-78
2023/07/28 03:06:56;;;;;;;74.97;25.38;;;16.80;99.90;;;15.90;100.00;99803.72;4961642;28;20057;-80
2023/07/28 03:09:22;;;;;;;48.70;21.13;;;16.70;99.90;;;15.86;100.00;99802.28;4987480;28;20056;-81
2023/07/28 03:11:55;;;;;;;69.10;25.80;;;16.70;99.90;;;15.82;100.00;99806.16;4984254;28;20456;-79
2023/07/28 03:14:21;;;;;;;40.80;19.50;;;16.70;99.90;;;15.85;100.00;99800.59;5009832;28;20030;-80
2023/07/28 03:16:47;;;;;;;31.63;15.40;;;16.70;99.90;;;15.87;100.00;99804.78;5010708;28;20048;-78
2023/07/28 03:19:12;;;;;;;29.42;14.73;;;16.80;99.90;;;15.88;100.00;99810.97;4975547;28;20061;-78
2023/07/28 03:21:38;;;;;;;25.33;14.38;;;16.80;99.90;;;15.92;100.00;99818.53;5000286;28;20135;-78
2023/07/28 03:24:04;;;;;;;42.03;18.30;;;16.80;99.90;;;15.94;100.00;99815.78;4983463;28;20101;-78
2023/07/28 03:26:30;;;;;;;27.95;15.10;;;16.80;99.90;;;15.93;100.00;99816.72;5016202;28;20041;-77
2023/07/28 03:29:04;;;;;;;28.42;14.40;;;16.80;99.90;;;15.94;100.00;99811.28;4965198;28;20605;-77
2023/07/28 03:31:30;;;;;;;23.90;13.13;;;16.80;99.90;;;15.98;100.00;99822.47;4988321;28;20034;-78
2023/07/28 03:34:03;;;;;;;22.63;12.60;;;16.80;99.90;;;16.02;100.00;99815.09;5013410;28;20061;-78
2023/07/28 03:36:29;;;;;;;26.40;14.02;;;16.80;99.90;;;16.06;100.00;99824.50;4970491;28;20033;-79
2023/07/28 03:38:55;;;;;;;28.52;15.70;;;16.90;99.90;;;16.08;100.00;99823.41;4983561;28;20048;-80
2023/07/28 03:41:21;;;;;;;34.58;16.58;;;16.90;99.90;;;16.07;100.00;99827.03;4970622;28;20038;-80
2023/07/28 03:43:46;;;;;;;37.60;17.15;;;16.90;99.90;;;16.07;100.00;99812.91;4975070;28;20057;-81
2023/07/28 03:46:12;;;;;;;28.13;14.82;;;16.90;99.90;;;16.05;100.00;99817.53;4968000;28;20044;-81
2023/07/28 03:48:43;;;;;;;26.05;13.48;;;16.90;99.90;;;16.03;100.00;99819.47;4947351;28;20030;-80
2023/07/28 03:51:09;;;;;;;49.55;19.08;;;16.90;99.90;;;16.02;100.00;99815.09;4969444;28;20034;-81
2023/07/28 03:53:35;;;;;;;23.02;12.80;;;16.90;99.90;;;16.03;100.00;99809.69;4984557;28;20037;-80
2023/07/28 03:56:02;;;;;;;25.95;13.10;;;16.90;99.90;;;16.03;100.00;99819.47;4961510;28;20034;-80
2023/07/28 03:58:28;;;;;;;23.25;13.45;;;16.90;99.90;;;16.03;100.00;99814.16;5006498;28;20164;-79
2023/07/28 04:00:54;;;;;;;31.23;13.05;;;16.90;99.90;;;16.07;100.00;99816.41;4991500;28;20076;-78
2023/07/28 04:03:23;;;;;;;28.75;14.15;;;16.90;99.90;;;16.07;100.00;99808.44;4969119;28;20045;-78
2023/07/28 04:05:49;;;;;;;25.40;13.52;;;16.90;99.90;;;16.10;100.00;99804.69;4966694;28;20079;-78
2023/07/28 04:08:14;;;;;;;19.98;11.18;;;16.90;99.90;;;16.12;100.00;99811.56;4990917;28;20124;-78
2023/07/28 04:10:40;;;;;;;17.05;9.70;;;17.00;99.90;;;16.17;100.00;99816.47;4944593;28;20716;-78
2023/07/28 04:13:06;;;;;;;21.17;11.52;;;17.00;99.90;;;16.20;100.00;99819.72;4962273;28;20176;-77
2023/07/28 04:15:32;;;;;;;;;;;17.00;99.90;;;16.18;100.00;99824.31;4970455;28;20501;-78
2023/07/28 04:18:00;;;;;;;20.15;10.95;;;17.00;99.90;;;16.16;100.00;99826.25;4994253;28;19932;-77
2023/07/28 04:20:29;;;;;;;20.50;11.35;;;17.00;99.90;;;16.19;100.00;99818.03;4964597;28;20034;-77
2023/07/28 04:22:55;;;;;;;26.38;11.20;;;17.00;99.90;;;16.17;100.00;99819.97;4975630;28;20404;-77
2023/07/28 04:25:20;;;;;;;25.45;12.15;;;17.00;99.90;;;16.15;100.00;99819.25;5032550;28;20042;-77
2023/07/28 04:27:46;;;;;;;22.23;10.98;;;17.00;99.90;;;16.14;100.00;99814.91;4987579;28;20121;-77
2023/07/28 04:30:12;;;;;;;22.98;10.45;;;17.00;99.90;;;16.12;100.00;99816.03;4993928;28;20133;-77
2023/07/28 04:32:46;;;;;;;22.33;11.60;;;17.00;99.90;;;16.13;100.00;99807.94;4944980;28;20117;-77
2023/07/28 04:35:13;;;;;;;22.38;11.70;;;17.00;99.90;;;16.09;100.00;99819.78;4992264;28;20053;-77
2023/07/28 04:37:39;;;;;;;24.88;11.77;;;17.00;99.90;;;16.05;100.00;99820.19;4969484;28;20045;-77
2023/07/28 04:40:05;;;;;;;17.67;9.88;;;17.00;99.90;;;16.08;100.00;99811.94;4982894;28;20057;-77
2023/07/28 04:42:38;;;;;;;23.35;11.65;;;17.00;99.90;;;16.03;100.00;99807.03;5001866;28;20137;-77
2023/07/28 04:45:05;;;;;;;24.60;11.40;;;17.00;99.90;;;16.11;100.00;99822.28;4984708;28;20112;-77
2023/07/28 04:47:31;;;;;;;20.83;10.65;;;17.00;99.90;;;16.15;100.00;99823.72;4991506;28;20121;-77
2023/07/28 04:49:58;;;;;;;20.33;10.52;;;17.00;99.90;;;16.18;100.00;99813.69;4991216;28;20034;-77
2023/07/28 04:52:27;;;;;;;14.00;8.73;;;17.00;99.90;;;16.13;100.00;99825.66;4965246;28;20072;-77
2023/07/28 04:54:52;;;;;;;18.38;9.90;;;17.00;99.90;;;16.10;100.00;99829.44;4971346;28;20034;-78
2023/07/28 04:57:19;;;;;;;13.50;8.52;;;17.00;99.90;;;16.13;100.00;99825.66;4962411;28;20034;-78
2023/07/28 04:59:45;;;;;;;11.32;7.22;;;17.10;99.90;;;16.26;100.00;99830.78;4944643;28;20037;-77
2023/07/28 05:02:10;;;;;;;13.07;8.52;;;17.10;99.90;;;16.35;100.00;99825.56;4973309;28;20044;-78
2023/07/28 05:04:36;;;;;;;10.23;6.10;;;17.20;99.90;;;16.46;100.00;99831.75;4992828;28;20557;-78
2023/07/28 05:07:05;;;;;;;15.82;9.23;;;17.30;99.90;;;16.57;100.00;99821.88;4964242;28;20037;-78
2023/07/28 05:09:33;;;;;;;10.85;7.57;;;17.30;99.90;;;16.66;100.00;99824.72;4935514;28;20041;-78
2023/07/28 05:11:59;;;;;;;17.10;8.60;;;17.50;99.90;;;16.75;100.00;99832.75;4952620;28;20081;-77
2023/07/28 05:14:24;;;;;;;13.18;6.50;;;17.50;99.90;;;16.75;100.00;99826.59;4979180;28;20057;-77
2023/07/28 05:16:50;;;;;;;12.07;7.22;;;17.50;99.90;;;16.72;100.00;99821.56;5015766;28;20147;-77
2023/07/28 05:19:16;;;;;;;;;;;17.50;99.90;;;16.79;100.00;99822.69;4993676;28;20193;-77
2023/07/28 05:21:41;;;;;;;8.68;5.55;;;17.60;99.90;;;16.85;100.00;99834.66;4969769;28;19914;-77
2023/07/28 05:24:09;;;;;;;10.60;5.55;;;17.60;99.90;;;16.87;100.00;99836.19;4964999;28;20050;-78
2023/07/28 05:26:37;;;;;;;5.13;4.57;;;17.70;99.90;;;16.96;100.00;99838.03;5004600;28;20033;-78
2023/07/28 05:29:03;;;;;;;10.82;5.70;;;17.70;99.90;;;16.94;100.00;99842.66;4967167;28;20054;-77
2023/07/28 05:31:29;;;;;;;7.43;5.07;;;17.70;99.90;;;16.74;100.00;99846.19;4980897;28;20103;-77
2023/07/28 05:33:55;;;;;;;;;;;17.70;99.90;;;16.61;100.00;99846.41;4989842;28;20048;-77
2023/07/28 05:36:20;;;;;;;7.40;4.22;;;17.60;99.90;;;16.68;100.00;99836.09;4998001;28;19917;-77
2023/07/28 05:38:53;;;;;;;;;;;17.60;99.90;;;16.77;100.00;99848.56;4955446;28;20038;-77
2023/07/28 05:41:19;;;;;;;5.70;3.88;;;17.70;99.90;;;16.79;100.00;99849.28;4970405;28;19925;-77
2023/07/28 05:43:45;;;;;;;6.53;4.15;;;17.60;99.90;;;16.82;100.00;99849.03;4964389;28;20045;-77
2023/07/28 05:46:11;;;;;;;6.88;3.63;;;17.60;99.90;;;16.76;100.00;99846.88;4993444;28;20032;-77
2023/07/28 05:48:37;;;;;;;;;;;17.60;99.90;;;16.57;100.00;99848.47;4958910;28;20069;-77
2023/07/28 05:51:10;;;;;;;5.28;3.92;;;17.50;99.90;;;16.53;100.00;99844.38;4984462;28;19982;-77
2023/07/28 05:53:36;;;;;;;7.68;4.38;;;17.60;99.90;;;16.70;100.00;99839.44;4970398;28;20040;-78
2023/07/28 05:56:01;;;;;;;4.82;3.67;;;17.60;99.90;;;16.85;100.00;99842.63;4949411;28;20041;-77
2023/07/28 05:58:27;;;;;;;;;;;17.60;99.90;;;16.83;100.00;99855.22;4969040;28;20040;-77
2023/07/28 06:00:53;;;;;;;3.22;2.80;;;17.70;99.90;;;16.86;100.00;99847.78;4984555;28;20375;-77
2023/07/28 06:03:24;;;;;;;4.72;2.95;;;17.70;99.90;;;16.90;100.00;99851.03;5002402;28;20034;-77
2023/07/28 06:05:51;;;;;;;2.78;2.53;;;17.70;99.90;;;16.88;100.00;99845.84;4983072;28;20170;-77
2023/07/28 06:08:17;;;;;;;3.70;3.13;;;17.70;99.90;;;16.82;100.00;99851.69;4987333;28;20034;-77
2023/07/28 06:10:43;;;;;;;3.22;2.83;;;17.70;99.90;;;16.85;100.00;99854.09;4974505;28;20493;-77
2023/07/28 06:13:09;;;;;;;;;;;17.70;99.90;;;16.91;100.00;99864.22;5004659;28;20822;-77
2023/07/28 06:15:34;;;;;;;6.90;3.25;;;17.70;99.90;;;16.69;100.00;99869.66;4992686;28;19921;-77
2023/07/28 06:18:05;;;;;;;3.88;2.95;;;17.70;99.90;;;16.83;100.00;99860.53;5021849;28;20087;-77
2023/07/28 06:20:30;;;;;;;6.72;2.83;;;17.70;99.90;;;16.91;100.00;99863.34;4983026;28;20054;-77
2023/07/28 06:22:56;;;;;;;6.22;3.17;;;17.80;99.90;;;17.04;100.00;99860.47;4982150;28;20034;-77
2023/07/28 06:25:22;;;;;;;3.35;3.05;;;17.80;99.90;;;17.06;100.00;99866.50;5031067;28;20114;-77
2023/07/28 06:27:48;;;;;;;6.15;2.70;;;17.80;99.90;;;16.95;100.00;99870.06;4996763;28;20052;-77
2023/07/28 06:30:14;;;;;;;5.10;3.35;;;17.90;99.90;;;17.09;100.00;99868.91;4990571;28;20030;-77
2023/07/28 06:32:44;;;;;;;3.90;3.30;;;17.90;99.90;;;17.12;100.00;99865.94;5011461;28;20026;-77
2023/07/28 06:35:10;;;;;;;9.82;4.25;;;18.00;99.90;;;17.24;100.00;99870.22;4982776;28;20046;-78
2023/07/28 06:37:38;;;;;;;5.38;4.70;;;18.10;99.90;;;17.46;100.00;99876.28;4983316;28;20038;-77
2023/07/28 06:40:08;;;;;;;5.57;3.67;;;18.30;99.90;;;17.69;100.00;99874.22;4999366;28;20812;-77
2023/07/28 06:42:36;;;;;;;5.85;3.38;;;18.40;99.90;;;17.71;100.00;99882.91;4963411;28;20472;-78
2023/07/28 06:45:03;;;;;;;4.43;3.40;;;18.50;99.90;;;17.78;100.00;99882.22;4983885;28;20038;-78
2023/07/28 06:47:29;;;;;;;7.43;3.30;;;18.60;99.90;;;18.08;100.00;99880.47;4975570;28;20061;-77
2023/07/28 06:49:55;;;;;;;5.88;3.85;;;18.80;99.90;;;18.34;100.00;99885.22;4969821;28;20482;-76
2023/07/28 06:52:20;;;;;;;;;;;18.90;99.90;;;18.19;100.00;99877.63;4951958;28;20403;-77
2023/07/28 06:54:52;;;;;;;6.35;3.05;;;19.00;99.90;;;18.21;100.00;99889.00;4997155;28;19917;-77
2023/07/28 06:57:18;;;;;;;3.20;2.83;;;19.00;99.90;;;18.17;100.00;99889.44;5012138;28;20041;-77
2023/07/28 06:59:44;;;;;;;4.97;2.65;;;19.00;99.90;;;18.14;100.00;99882.56;4940822;28;20076;-76
2023/07/28 07:02:10;;;;;;;3.70;2.80;;;19.00;99.90;;;18.27;100.00;99889.41;4986146;28;20529;-77
2023/07/28 07:04:36;;;;;;;;;;;19.20;99.90;;;18.55;100.00;99895.69;4967821;28;20124;-77
2023/07/28 07:07:02;;;;;;;4.28;2.45;;;19.30;99.90;;;18.63;100.00;99906.47;5005063;28;19917;-76
2023/07/28 07:09:32;;;;;;;3.75;2.45;;;19.30;99.90;;;18.44;100.00;99902.00;5006152;28;20046;-76
2023/07/28 07:11:58;;;;;;;3.08;2.63;;;19.30;99.90;;;18.55;100.00;99909.88;4984264;28;20045;-77
2023/07/28 07:14:24;;;;;;;4.25;3.00;;;19.30;99.90;;;18.60;100.00;99914.78;4961152;28;20432;-77
2023/07/28 07:16:50;;;;;;;;;;;19.30;99.90;;;18.38;100.00;99910.56;4981722;28;20079;-77
2023/07/28 07:19:15;;;;;;;3.40;2.42;;;19.40;99.90;;;18.54;100.00;99913.50;5004908;28;19922;-77
2023/07/28 07:21:42;;;;;;;2.95;2.55;;;19.40;99.90;;;18.60;100.00;99918.28;5006527;28;20030;-77
2023/07/28 07:24:13;;;;;;;5.53;3.30;;;19.50;99.90;;;18.74;100.00;99934.81;4981054;28;20068;-76
2023/07/28 07:26:40;;;;;;;5.50;3.20;;;19.40;99.90;;;18.74;100.00;99924.13;4962273;28;20132;-77
2023/07/28 07:29:06;;;;;;;6.57;3.65;;;19.40;99.90;;;18.65;100.00;99933.84;4983341;28;20046;-76
2023/07/28 07:31:32;;;;;;;5.25;4.18;;;19.40;99.90;;;18.69;100.00;99935.25;4989292;28;20099;-76
2023/07/28 07:34:05;;;;;;;4.72;3.28;;;;;;;18.64;100.00;99937.50;5001155;28;20077;-76
2023/07/28 07:36:31;;;;;;;3.90;3.47;;;19.50;99.90;;;18.64;100.00;99943.69;4979356;28;25274;-76
2023/07/28 07:38:58;;;;;;;4.07;3.25;;;19.40;99.90;;;18.62;100.00;99947.47;5002718;28;20626;-76
2023/07/28 07:41:24;;;;;;;4.32;3.08;;;19.30;99.90;;;18.57;100.00;99947.88;4996162;28;20062;-77
2023/07/28 07:43:57;;;;;;;5.88;3.10;;;19.30;99.90;;;18.47;100.00;99944.41;5002448;28;20118;-76
2023/07/28 07:46:23;;;;;;;3.88;3.45;;;19.30;99.90;;;18.52;100.00;99947.47;5000230;28;20639;-76
2023/07/28 07:48:49;;;;;;;5.93;3.47;;;19.30;99.90;;;18.54;100.00;99953.50;4978919;28;20030;-76
2023/07/28 07:51:17;;;;;;;6.50;3.63;;;19.30;99.90;;;18.59;100.00;99959.25;4996336;28;20121;-76
2023/07/28 07:53:42;;;;;;;4.30;3.75;;;19.30;99.90;;;18.55;100.00;99959.66;4953158;28;20506;-76
2023/07/28 07:56:12;;;;;;;5.03;4.20;;;19.30;99.90;;;18.57;100.00;99966.53;4968785;28;20121;-76
2023/07/28 07:58:38;;;;;;;5.05;4.43;;;19.30;99.90;;;18.60;100.00;99968.94;4975809;28;20042;-76
2023/07/28 08:01:04;;;;;;;7.07;5.35;;;19.30;99.90;;;18.53;100.00;99970.50;4976977;28;20112;-76
2023/07/28 08:03:31;;;;;;;6.65;5.55;;;19.20;99.90;;;18.44;100.00;99968.66;5003803;28;20159;-76
2023/07/28 08:05:57;;;;;;;9.68;5.90;;;19.30;99.90;;;18.44;100.00;99965.97;4977695;28;20049;-76
2023/07/28 08:08:31;;;;;;;6.75;5.28;;;19.30;99.90;;;18.47;100.00;99973.72;4968308;28;20100;-76
2023/07/28 08:10:57;;;;;;;5.10;4.60;;;19.30;99.90;;;18.60;100.00;99973.44;4962763;28;20092;-76
2023/07/28 08:13:23;;;;;;;4.85;2.15;;;19.30;99.90;;;18.58;100.00;99970.06;5011943;28;20507;-76
2023/07/28 08:15:48;;;;;;;3.15;2.17;;;19.30;99.90;;;18.61;100.00;99973.25;5003693;28;20030;-76
2023/07/28 08:18:14;;;;;;;2.55;1.90;;;19.40;99.90;;;18.80;100.00;99984.94;4971227;28;20120;-75
2023/07/28 08:20:41;;;;;;;2.95;1.88;;;19.50;99.90;;;18.99;100.00;99987.56;5001788;28;20161;-76
2023/07/28 08:23:07;;;;;;;2.65;1.67;;;19.70;99.90;;;19.14;99.08;99995.13;4970348;28;20044;-76
2023/07/28 08:25:34;;;;;;;1.90;1.70;;;19.80;99.90;;;19.27;97.36;99995.66;4991893;28;20029;-76
2023/07/28 08:28:00;;;;;;;2.03;1.83;;;19.90;99.90;;;19.44;96.56;99997.56;4971622;28;20381;-76
2023/07/28 08:30:26;;;;;;;3.90;1.90;;;20.10;99.90;;;19.64;95.96;100005.50;4956557;28;20128;-77
2023/07/28 08:32:52;;;;;;;3.08;2.38;;;20.30;99.90;;;19.80;94.39;99996.84;4970939;28;20112;-76
2023/07/28 08:35:18;;;;;;;;;;;20.30;99.90;;;19.97;94.26;100000.56;4954942;28;20116;-76
2023/07/28 08:37:48;;;;;;;3.97;2.28;;;20.60;99.90;;;20.14;92.57;100007.75;4987535;28;19936;-77
2023/07/28 08:40:14;;;;;;;10.70;2.20;;;20.70;99.90;;;20.16;90.53;100012.97;4978270;28;20051;-77
2023/07/28 08:42:40;;;;;;;3.63;2.00;;;20.80;99.90;;;20.28;90.63;100012.59;5003670;28;20045;-76
2023/07/28 08:45:13;;;;;;;3.75;1.90;;;20.90;99.90;;;20.35;89.27;100001.31;4985406;28;20463;-76
2023/07/28 08:47:41;;;;;;;3.28;1.80;;;21.00;99.90;;;20.65;89.04;100013.47;4969984;28;20049;-76
2023/07/28 08:50:07;;;;;;;2.97;1.67;;;21.10;99.90;;;20.67;86.71;100016.84;4972673;28;20041;-77
2023/07/28 08:52:33;;;;;;;5.45;2.10;;;21.30;99.90;;;20.91;86.80;100021.53;4938705;28;20062;-76
2023/07/28 08:54:59;;;;;;;3.45;2.72;;;21.40;99.90;;;21.03;87.29;100025.63;4956098;28;20068;-76
2023/07/28 08:57:25;;;;;;;3.70;2.75;;;21.60;99.90;;;21.31;85.14;100034.34;4951075;28;20042;-77
2023/07/28 08:59:57;;;;;;;4.32;2.58;;;21.80;99.90;;;21.59;85.10;100033.38;4965767;28;20120;-76
2023/07/28 09:02:23;;;;;;;2.90;1.85;;;22.00;99.90;;;21.74;82.24;100036.31;4990057;28;20846;-77
2023/07/28 09:04:49;;;;;;;5.13;1.70;;;22.20;99.90;;;21.94;82.09;100042.25;4971393;28;20041;-79
2023/07/28 09:07:16;;;;;;;3.83;1.20;;;22.30;99.90;;;21.91;80.06;100040.72;4987874;28;20115;-76
2023/07/28 09:09:42;;;;;;;1.70;1.55;;;22.40;99.90;;;21.78;80.39;100035.81;4992552;28;20088;-76
2023/07/28 09:12:11;;;;;;;3.33;1.98;;;22.30;99.90;;;21.64;80.43;100041.75;5008109;28;20061;-76
2023/07/28 09:14:39;;;;;;;4.88;1.63;;;22.20;99.90;;;21.47;81.03;100039.00;5018198;28;20539;-76
2023/07/28 09:17:13;;;;;;;2.13;1.90;;;22.10;99.90;;;21.30;80.59;100038.03;4997114;28;20038;-76
2023/07/28 09:19:57;;;;;;;4.07;1.48;;;21.90;99.90;;;21.15;81.44;100033.44;4977080;28;20424;-76
2023/07/28 09:22:23;;;;;;;4.47;1.50;;;21.70;99.90;;;20.84;81.84;100021.34;5023902;28;20435;-76
2023/07/28 09:24:51;;;;;;;1.55;1.40;;;21.70;99.90;;;21.05;84.01;100031.66;4986763;28;20030;-76
2023/07/28 09:27:29;;;;;;;3.85;1.25;;;21.80;99.90;;;21.20;82.17;100036.47;4995344;28;20167;-76
2023/07/28 09:30:02;;;;;;;4.85;1.20;;;21.90;99.90;;;21.46;79.18;100045.34;5017904;28;20034;-76
2023/07/28 09:32:33;;;;;;;1.50;0.88;;;22.20;99.90;;;21.92;79.26;100051.28;5000521;28;20134;-76
2023/07/28 09:35:12;;;;;;;2.58;1.00;;;22.40;99.90;;;22.23;78.53;100053.44;5005561;28;20381;-77
2023/07/28 09:37:42;;;;;;;1.08;0.80;;;22.70;99.90;;;22.58;76.00;100056.84;4994791;28;20054;-76
2023/07/28 09:40:16;;;;;;;0.95;0.85;;;23.10;99.90;;;23.05;73.31;100060.78;5006220;28;20116;-76
2023/07/28 09:42:49;;;;;;;4.45;1.00;;;23.40;99.90;;;23.29;72.09;100070.66;5018624;28;20056;-76
2023/07/28 09:45:21;;;;;;;2.22;1.30;;;23.60;99.90;;;23.40;70.22;100066.78;5015722;28;20034;-76
2023/07/28 09:47:55;;;;;;;2.40;0.93;;;23.80;99.90;;;23.54;71.05;100056.16;5015580;28;20026;-75
2023/07/28 09:50:26;;;;;;;4.43;1.10;;;23.90;99.90;;;23.45;72.20;100059.03;5024006;28;20045;-76
2023/07/28 09:52:59;;;;;;;1.27;1.00;;;23.80;99.90;;;23.07;72.36;100067.66;4994582;28;20049;-76
2023/07/28 09:55:28;;;;;;;1.17;1.05;;;23.50;99.90;;;22.43;73.02;100066.56;5016654;28;20554;-76
2023/07/28 09:57:59;;;;;;;1.85;1.00;;;23.10;99.90;;;21.99;75.01;100072.09;5013793;28;20064;-76
2023/07/28 10:00:27;;;;;;;3.05;1.20;;;22.70;99.90;;;21.44;77.03;100068.78;5015374;28;20057;-76
2023/07/28 10:02:55;;;;;;;1.75;1.15;;;22.30;99.90;;;21.08;78.97;100068.84;5000349;28;20033;-76
2023/07/28 10:05:22;;;;;;;2.25;1.77;;;21.90;99.90;;;20.65;81.18;100062.47;5004862;28;20093;-76
2023/07/28 10:07:53;;;;;;;3.35;1.70;;;21.50;99.90;;;20.26;83.51;100068.03;5014625;28;20542;-77
2023/07/28 10:10:20;;;;;;;5.03;2.22;;;21.20;99.90;;;20.02;84.79;100059.72;5015841;28;20121;-77